Time;durP1;ratioP1;P1;durP2;ratioP2;P2;SDS_P1;SDS_P2;PMS_P1;PMS_P2;Temp;Humidity;BMP_temperature;BMP_pressure;BME280_temperature;BME280_humidity;BME280_pressure;Samples;Min_cycle;Max_cycle;Signal;HPM_P1;HPM_P2
2021/05/28 00:00:53;;;;;;;20.13;9.00;;;;;;;10.63;71.93;100266.97;5005886;28;20104;-69
2021/05/28 00:03:18;;;;;;;12.90;8.55;;;;;;;10.65;71.67;100259.88;5005604;28;20030;-69
2021/05/28 00:05:44;;;;;;;16.17;10.55;;;;;;;10.68;71.61;100259.72;5019144;28;20162;-70
2021/05/28 00:08:09;;;;;;;19.63;9.07;;;;;;;10.67;71.64;100263.31;5021810;28;20083;-67
2021/05/28 00:10:35;;;;;;;13.75;9.73;;;;;;;10.69;71.59;100266.75;5005498;28;20033;-70
2021/05/28 00:13:00;;;;;;;16.88;9.73;;;;;;;10.66;71.82;100264.22;5022515;28;20043;-67
2021/05/28 00:15:25;;;;;;;16.85;8.43;;;;;;;10.66;71.92;100272.16;5024684;28;20057;-67
2021/05/28 00:17:51;;;;;;;27.90;10.60;;;;;;;10.63;71.98;100269.63;5022591;28;20091;-67
2021/05/28 00:20:16;;;;;;;14.48;8.77;;;;;;;10.63;71.76;100272.25;5024425;28;20144;-67
2021/05/28 00:22:43;;;;;;;16.88;8.30;;;;;;;10.62;72.45;100275.81;5024769;28;20045;-67
2021/05/28 00:25:10;;;;;;;16.85;9.35;;;;;;;10.57;72.39;100275.16;5023754;28;20049;-67
2021/05/28 00:27:36;;;;;;;12.98;9.25;;;;;;;10.57;72.26;100276.00;5014938;28;20497;-69
2021/05/28 00:30:03;;;;;;;15.10;9.20;;;;;;;10.56;72.55;100274.31;5007552;28;20124;-69
2021/05/28 00:32:29;;;;;;;9.68;7.75;;;;;;;10.61;72.31;100274.09;5022319;28;20029;-68
2021/05/28 00:34:55;;;;;;;12.57;6.93;;;;;;;10.68;72.04;100275.56;5023861;28;20369;-69
2021/05/28 00:37:20;;;;;;;17.85;10.48;;;;;;;10.67;71.72;100271.22;5018068;28;20041;-68
2021/05/28 00:39:45;;;;;;;13.77;8.25;;;;;;;10.64;72.00;100268.72;5005181;28;20117;-66
2021/05/28 00:42:11;;;;;;;11.63;9.30;;;;;;;10.62;72.14;100267.91;5004866;28;20041;-68
2021/05/28 00:44:40;;;;;;;20.95;11.52;;;;;;;10.56;72.03;100271.66;4995777;28;21983;-68
2021/05/28 00:47:06;;;;;;;17.83;10.27;;;;;;;10.52;72.65;100270.91;5001708;28;20048;-68
2021/05/28 00:49:32;;;;;;;19.10;10.90;;;;;;;10.44;72.71;100280.94;4992389;28;20053;-68
2021/05/28 00:51:58;;;;;;;17.75;11.50;;;;;;;10.37;73.06;100281.25;5022793;28;21041;-68
2021/05/28 00:54:24;;;;;;;18.00;10.05;;;;;;;10.30;73.65;100285.91;5024076;28;20045;-68
2021/05/28 00:56:50;;;;;;;16.55;9.43;;;;;;;10.28;73.64;100279.81;5019470;28;20033;-69
2021/05/28 00:59:16;;;;;;;14.13;9.27;;;;;;;10.29;73.44;100286.84;5005059;28;20030;-68
2021/05/28 01:01:42;;;;;;;14.38;8.73;;;;;;;10.28;73.76;100283.31;4991267;28;20053;-69
2021/05/28 01:04:07;;;;;;;12.68;8.45;;;;;;;10.32;73.53;100289.34;5023965;28;20033;-68
2021/05/28 01:06:34;;;;;;;19.50;8.13;;;;;;;10.32;72.94;100282.28;5023028;28;20564;-69
2021/05/28 01:08:59;;;;;;;12.57;8.27;;;;;;;10.31;73.17;100277.94;5023217;28;20579;-68
2021/05/28 01:11:25;;;;;;;19.95;10.77;;;;;;;10.30;73.86;100283.25;5023435;28;20061;-68
2021/05/28 01:13:51;;;;;;;20.52;10.73;;;;;;;10.26;73.49;100276.34;5024050;28;20452;-68
2021/05/28 01:16:17;;;;;;;17.70;10.50;;;;;;;10.18;73.38;100278.44;5023470;28;20043;-68
2021/05/28 01:18:42;;;;;;;19.25;10.82;;;;;;;10.12;74.30;100276.91;5023499;28;20037;-68
2021/05/28 01:21:08;;;;;;;22.52;10.85;;;;;;;10.06;74.41;100280.63;5024486;28;20620;-70
2021/05/28 01:23:36;;;;;;;17.80;11.05;;;;;;;10.05;74.24;100275.44;5014034;28;20397;-69
2021/05/28 01:26:02;;;;;;;18.95;10.52;;;;;;;10.04;74.10;100276.34;5020132;28;20060;-69
2021/05/28 01:28:27;;;;;;;13.20;8.23;;;;;;;10.04;73.92;100276.34;5024066;28;20041;-70
2021/05/28 01:30:52;;;;;;;13.13;8.90;;;;;;;10.05;73.99;100276.28;5023803;28;20037;-69
2021/05/28 01:33:18;;;;;;;20.33;9.43;;;;;;;10.04;74.43;100274.59;5023994;28;20170;-69
2021/05/28 01:35:43;;;;;;;20.42;9.15;;;;;;;10.04;74.40;100279.88;5023413;28;20118;-68
2021/05/28 01:38:09;;;;;;;13.95;9.48;;;;;;;9.97;74.28;100278.38;5023033;28;20056;-70
2021/05/28 01:40:34;;;;;;;21.27;11.15;;;;;;;9.95;74.86;100279.38;4998770;28;20053;-68
2021/05/28 01:42:59;;;;;;;12.75;9.73;;;;;;;9.91;74.54;100286.50;5023752;28;20042;-68
2021/05/28 01:45:25;;;;;;;17.70;11.82;;;;;;;9.89;75.03;100286.59;5021488;28;20042;-68
2021/05/28 01:47:51;;;;;;;20.33;9.45;;;;;;;9.88;75.78;100292.75;5019058;28;20048;-68
2021/05/28 01:50:17;;;;;;;17.70;10.15;;;;;;;9.89;75.62;100289.22;5023009;28;20115;-69
2021/05/28 01:52:43;;;;;;;11.82;8.70;;;;;;;9.95;75.38;100290.75;5023514;28;20039;-68
2021/05/28 01:55:12;;;;;;;24.60;11.52;;;;;;;9.97;75.38;100294.19;5026302;28;20794;-68
2021/05/28 01:57:38;;;;;;;16.00;9.95;;;;;;;9.98;75.48;100290.63;5027190;28;20497;-68
2021/05/28 02:00:07;;;;;;;21.17;13.40;;;;;;;9.99;75.29;100286.19;5026912;28;20033;-69
2021/05/28 02:02:32;;;;;;;21.45;13.77;;;;;;;9.95;75.40;100292.53;5026963;28;20123;-69
2021/05/28 02:04:57;;;;;;;18.13;11.93;;;;;;;9.91;75.27;100288.28;5026871;28;20136;-69
2021/05/28 02:07:23;;;;;;;14.73;9.65;;;;;;;9.91;75.62;100291.78;5025410;28;20401;-69
2021/05/28 02:09:48;;;;;;;17.17;11.38;;;;;;;9.94;75.54;100288.16;5017242;28;20197;-68
2021/05/28 02:12:13;;;;;;;17.48;12.88;;;;;;;9.92;74.81;100287.34;5027305;28;20477;-70
2021/05/28 02:14:39;;;;;;;16.40;11.32;;;;;;;9.91;75.46;100283.88;5027239;28;20388;-69
2021/05/28 02:17:04;;;;;;;19.10;10.43;;;;;;;9.90;75.65;100287.44;5024643;28;20053;-68
2021/05/28 02:19:30;;;;;;;19.23;11.05;;;;;;;9.85;76.06;100287.59;5012318;28;20044;-68
2021/05/28 02:21:55;;;;;;;16.55;11.27;;;;;;;9.84;75.41;100282.38;5008945;28;20038;-70
2021/05/28 02:24:22;;;;;;;15.82;11.13;;;;;;;9.81;75.60;100290.41;5026983;28;20459;-69
2021/05/28 02:26:48;;;;;;;16.48;11.55;;;;;;;9.77;76.14;100287.06;5026812;28;20041;-69
2021/05/28 02:29:14;;;;;;;25.67;12.60;;;;;;;9.77;76.30;100291.44;5027282;28;20037;-69
2021/05/28 02:31:40;;;;;;;20.13;11.40;;;;;;;9.75;76.29;100285.41;5027003;28;20037;-70
2021/05/28 02:34:05;;;;;;;15.45;11.88;;;;;;;9.77;76.26;100287.06;5025231;28;20147;-69
2021/05/28 02:36:31;;;;;;;12.57;9.15;;;;;;;9.81;76.06;100293.03;5006176;28;20038;-69
2021/05/28 02:38:57;;;;;;;16.88;11.13;;;;;;;9.83;76.24;100296.47;5016510;28;20041;-68
2021/05/28 02:41:23;;;;;;;21.58;12.95;;;;;;;9.85;75.94;100292.03;5007917;28;20040;-68
2021/05/28 02:43:48;;;;;;;15.25;10.13;;;;;;;9.86;76.44;100293.72;5010286;28;20076;-68
2021/05/28 02:46:13;;;;;;;14.32;9.82;;;;;;;9.93;75.87;100303.13;5025748;28;20436;-68
2021/05/28 02:48:39;;;;;;;20.42;11.95;;;;;;;9.97;76.23;100302.09;5026029;28;20048;-68
2021/05/28 02:51:04;;;;;;;17.58;10.57;;;;;;;9.99;75.85;100305.53;5025359;28;20113;-68
2021/05/28 02:53:34;;;;;;;19.58;12.55;;;;;;;9.98;76.02;100302.94;5025989;28;20037;-68
2021/05/28 02:56:03;;;;;;;15.77;10.70;;;;;;;9.99;75.74;100302.00;5025372;28;20086;-70
2021/05/28 02:58:28;;;;;;;19.80;12.35;;;;;;;10.00;75.82;100309.88;5025828;28;20048;-67
2021/05/28 03:00:54;;;;;;;20.02;11.52;;;;;;;10.03;75.52;100306.25;5025413;28;20130;-69
2021/05/28 03:03:19;;;;;;;16.65;11.38;;;;;;;10.04;76.03;100305.31;5025835;28;20482;-70
2021/05/28 03:05:46;;;;;;;17.33;12.57;;;;;;;10.06;75.31;100308.75;5012146;28;20165;-70
2021/05/28 03:08:11;;;;;;;22.85;12.50;;;;;;;10.02;75.78;100310.66;5026814;28;20060;-70
2021/05/28 03:10:37;;;;;;;23.45;10.30;;;;;;;10.02;75.51;100307.19;5017634;28;20406;-70
2021/05/28 03:13:02;;;;;;;14.98;9.23;;;;;;;10.04;75.21;100307.94;5006399;28;20034;-70
2021/05/28 03:15:28;;;;;;;15.10;9.90;;;;;;;10.09;75.13;100314.78;5005553;28;20087;-69
2021/05/28 03:17:53;;;;;;;20.58;12.57;;;;;;;10.01;74.74;100305.44;4988299;28;20042;-69
2021/05/28 03:20:23;;;;;;;15.55;11.93;;;;;;;10.01;75.36;100310.72;5006093;28;20153;-70
2021/05/28 03:22:48;;;;;;;21.98;11.07;;;;;;;10.00;75.47;100311.66;5014765;28;20117;-69
2021/05/28 03:25:15;;;;;;;18.02;12.15;;;;;;;9.93;75.25;100308.38;5025030;28;20060;-70
2021/05/28 03:27:41;;;;;;;20.08;12.98;;;;;;;9.87;76.03;100308.63;5025286;28;20072;-70
2021/05/28 03:30:09;;;;;;;15.80;11.57;;;;;;;9.86;75.70;100304.25;5022555;28;20067;-70
2021/05/28 03:32:35;;;;;;;19.33;11.20;;;;;;;9.89;76.37;100309.41;5018180;28;20116;-69
2021/05/28 03:35:01;;;;;;;22.23;12.13;;;;;;;9.96;76.06;100310.88;5019459;28;20090;-72
2021/05/28 03:37:26;;;;;;;16.35;11.30;;;;;;;9.96;75.58;100310.03;5024681;28;20038;-68
2021/05/28 03:39:52;;;;;;;15.13;10.80;;;;;;;10.01;75.64;100314.19;5027146;28;20129;-70
2021/05/28 03:42:18;;;;;;;15.80;12.20;;;;;;;10.03;75.04;100315.00;4988451;28;20111;-69
2021/05/28 03:44:44;;;;;;;16.98;11.73;;;;;;;9.97;74.90;100317.88;5017704;28;20033;-69
2021/05/28 03:47:09;;;;;;;27.55;13.02;;;;;;;9.84;75.83;100319.25;5024965;28;20091;-69
2021/05/28 03:49:35;;;;;;;20.90;12.32;;;;;;;9.77;75.96;100318.66;5013037;28;20073;-69
2021/05/28 03:52:01;;;;;;;17.05;11.98;;;;;;;9.79;76.55;100316.78;5024540;28;20505;-68
2021/05/28 03:54:27;;;;;;;20.50;11.88;;;;;;;9.78;76.18;100317.72;5024411;28;20049;-69
2021/05/28 03:56:52;;;;;;;22.95;13.63;;;;;;;9.80;76.04;100320.31;5023089;28;20044;-69
2021/05/28 03:59:18;;;;;;;18.13;10.35;;;;;;;9.79;76.44;100318.56;5023115;28;20037;-69
2021/05/28 04:01:43;;;;;;;25.60;13.10;;;;;;;9.81;75.87;100324.66;5025300;28;20116;-68
2021/05/28 04:04:08;;;;;;;17.67;10.57;;;;;;;9.82;76.23;100321.06;5026296;28;20497;-68
2021/05/28 04:06:34;;;;;;;25.23;12.10;;;;;;;9.82;75.21;100321.97;5025210;28;20045;-68
2021/05/28 04:08:59;;;;;;;15.75;10.15;;;;;;;9.77;75.74;100329.19;5025893;28;20124;-68
2021/05/28 04:11:25;;;;;;;14.60;8.65;;;;;;;9.79;75.10;100321.19;5025524;28;20038;-68
2021/05/28 04:13:51;;;;;;;11.02;7.28;;;;;;;9.79;75.64;100334.38;5025667;28;20042;-68
2021/05/28 04:16:16;;;;;;;16.45;9.65;;;;;;;9.78;74.64;100335.31;5025894;28;20025;-69
2021/05/28 04:18:42;;;;;;;13.73;8.50;;;;;;;9.70;75.23;100337.34;5012403;28;20071;-68
2021/05/28 04:21:08;;;;;;;16.20;10.73;;;;;;;9.60;75.21;100332.44;5025192;28;20041;-68
2021/05/28 04:23:33;;;;;;;21.88;12.02;;;;;;;9.52;75.50;100339.72;4996915;28;20040;-69
2021/05/28 04:26:00;;;;;;;17.30;11.43;;;;;;;9.47;75.91;100341.66;5004598;28;20050;-69
2021/05/28 04:28:27;;;;;;;20.38;12.68;;;;;;;9.41;76.13;100347.16;5004843;28;20703;-69
2021/05/28 04:30:53;;;;;;;22.02;11.25;;;;;;;9.38;76.29;100342.00;5003097;28;20046;-69
2021/05/28 04:33:18;;;;;;;18.35;10.15;;;;;;;9.44;76.60;100341.78;5004700;28;20114;-69
2021/05/28 04:35:43;;;;;;;17.35;11.13;;;;;;;9.53;75.58;100340.59;5014180;28;20108;-68
2021/05/28 04:38:09;;;;;;;20.98;12.93;;;;;;;9.60;75.54;100339.47;5012771;28;20034;-69
2021/05/28 04:40:34;;;;;;;19.83;10.77;;;;;;;9.67;75.50;100352.34;5006156;28;20041;-70
2021/05/28 04:43:00;;;;;;;17.52;9.95;;;;;;;9.71;75.65;100352.22;5004873;28;20045;-72
2021/05/28 04:45:27;;;;;;;14.63;9.32;;;;;;;9.74;75.70;100342.44;5005882;28;20135;-69
2021/05/28 04:47:53;;;;;;;15.23;10.07;;;;;;;9.77;75.97;100347.63;5005535;28;20053;-70
2021/05/28 04:50:18;;;;;;;22.75;13.93;;;;;;;9.76;74.86;100348.50;5005020;28;20542;-69
2021/05/28 04:52:46;;;;;;;19.75;11.25;;;;;;;9.84;74.95;100353.47;5002048;28;20749;-69
2021/05/28 04:55:13;;;;;;;21.27;11.32;;;;;;;9.91;74.77;100351.50;5005169;28;20026;-68
2021/05/28 04:57:38;;;;;;;11.52;8.93;;;;;;;9.99;74.26;100355.56;5003825;28;20053;-70
2021/05/28 05:00:05;;;;;;;16.33;8.75;;;;;;;10.02;74.00;100357.22;5002998;28;20045;-69
2021/05/28 05:02:30;;;;;;;17.70;9.77;;;;;;;10.01;73.53;100364.25;5004907;28;20038;-69
2021/05/28 05:04:56;;;;;;;12.23;8.00;;;;;;;10.03;73.83;100372.97;5008408;28;20641;-69
2021/05/28 05:07:21;;;;;;;14.98;9.60;;;;;;;10.09;73.14;100369.22;5020752;28;20114;-69
2021/05/28 05:09:46;;;;;;;17.98;10.13;;;;;;;10.15;72.67;100366.38;5020624;28;20064;-68
2021/05/28 05:12:12;;;;;;;17.90;11.13;;;;;;;10.10;72.31;100369.19;5003022;28;20064;-69
2021/05/28 05:14:37;;;;;;;15.45;9.60;;;;;;;10.12;72.64;100377.03;5004302;28;20045;-70
2021/05/28 05:17:02;;;;;;;19.50;10.55;;;;;;;10.18;73.09;100368.88;5005033;28;20149;-69
2021/05/28 05:19:28;;;;;;;14.55;9.48;;;;;;;10.24;72.62;100373.09;5004847;28;20132;-68
2021/05/28 05:21:53;;;;;;;13.73;9.07;;;;;;;10.30;72.37;100383.41;5006557;28;20163;-70
2021/05/28 05:24:19;;;;;;;25.58;12.27;;;;;;;10.38;72.44;100388.38;5023576;28;20041;-68
2021/05/28 05:26:44;;;;;;;19.27;10.57;;;;;;;10.43;72.54;100386.41;5022507;28;20049;-68
2021/05/28 05:29:09;;;;;;;21.45;10.32;;;;;;;10.46;72.34;100383.66;5013522;28;20133;-69
2021/05/28 05:31:35;;;;;;;22.38;9.93;;;;;;;10.53;71.96;100388.66;5025982;28;20083;-69
2021/05/28 05:34:00;;;;;;;19.75;12.00;;;;;;;10.52;71.88;100394.81;5016035;28;20550;-68
2021/05/28 05:36:26;;;;;;;14.15;10.75;;;;;;;10.59;71.42;100391.97;5006995;28;20037;-68
2021/05/28 05:38:51;;;;;;;22.63;11.57;;;;;;;10.68;71.15;100395.09;5025764;28;20041;-69
2021/05/28 05:41:17;;;;;;;21.58;15.02;;;;;;;10.75;70.62;100395.69;5028666;28;20033;-69
2021/05/28 05:43:42;;;;;;;18.35;13.27;;;;;;;10.71;70.91;100396.75;5033721;28;20034;-69
2021/05/28 05:46:08;;;;;;;22.42;12.30;;;;;;;10.73;70.99;100405.44;5013835;28;20111;-68
2021/05/28 05:48:33;;;;;;;24.92;14.20;;;;;;;10.72;70.89;100414.28;5025796;28;20547;-69
2021/05/28 05:50:58;;;;;;;20.80;14.55;;;;;;;10.74;69.94;100415.06;5010284;28;20129;-69
2021/05/28 05:53:24;;;;;;;23.20;13.75;;;;;;;10.76;69.71;100415.88;5007791;28;20034;-68
2021/05/28 05:55:49;;;;;;;20.33;15.10;;;;;;;10.74;69.38;100425.63;5022525;28;20033;-68
2021/05/28 05:58:15;;;;;;;18.40;13.30;;;;;;;10.82;69.74;100412.13;5025595;28;20044;-69
2021/05/28 06:00:40;;;;;;;25.45;14.45;;;;;;;10.95;69.09;100423.91;5027705;28;20522;-69
2021/05/28 06:03:06;;;;;;;22.67;13.98;;;;;;;11.03;69.09;100424.47;5021618;28;20041;-70
2021/05/28 06:05:31;;;;;;;23.52;14.50;;;;;;;11.14;68.95;100431.94;5023711;28;20073;-70
2021/05/28 06:07:57;;;;;;;28.23;14.82;;;;;;;11.20;69.06;100430.81;5028488;28;20045;-70
2021/05/28 06:10:22;;;;;;;21.27;13.15;;;;;;;11.17;69.03;100430.03;5023370;28;20040;-71
2021/05/28 06:12:47;;;;;;;29.77;15.68;;;;;;;11.20;67.98;100431.69;5027409;28;20045;-69
2021/05/28 06:15:13;;;;;;;21.98;15.57;;;;;;;11.16;68.60;100433.59;5018800;28;20079;-69
2021/05/28 06:17:39;;;;;;;25.23;17.30;;;;;;;11.37;68.31;100429.19;5006752;28;20046;-69
2021/05/28 06:20:05;;;;;;;20.75;13.70;;;;;;;11.76;66.52;100427.53;5007715;28;20065;-69
2021/05/28 06:22:31;;;;;;;22.60;13.75;;;;;;;11.95;65.62;100419.69;5007716;28;20029;-69
2021/05/28 06:24:57;;;;;;;17.83;13.18;;;;;;;11.99;64.75;100426.56;5005318;28;20049;-70
2021/05/28 06:27:22;;;;;;;18.70;13.50;;;;;;;12.38;64.24;100430.94;5014642;28;20059;-67
2021/05/28 06:29:48;;;;;;;14.75;10.82;;;;;;;12.39;64.19;100430.03;5022287;28;20110;-69
2021/05/28 06:32:13;;;;;;;13.90;8.85;;;;;;;12.35;63.63;100428.44;5013109;28;20072;-68
2021/05/28 06:34:39;;;;;;;15.98;8.82;;;;;;;12.34;64.11;100426.75;5007108;28;20640;-68
2021/05/28 06:37:04;;;;;;;24.20;8.93;;;;;;;12.36;64.14;100422.25;5026193;28;20017;-68
2021/05/28 06:39:30;;;;;;;17.75;9.60;;;;;;;12.33;63.91;100420.59;5020045;28;20041;-69
2021/05/28 06:41:55;;;;;;;16.52;9.55;;;;;;;12.63;63.69;100414.81;5005573;28;20037;-70
2021/05/28 06:44:24;;;;;;;18.38;9.18;;;;;;;12.65;62.90;100416.44;5008201;28;20049;-69
2021/05/28 06:46:51;;;;;;;10.63;6.75;;;;;;;12.77;62.90;100424.72;5024913;28;20042;-69
2021/05/28 06:49:17;;;;;;;12.18;7.47;;;;;;;13.17;61.60;100418.34;5026165;28;20686;-69
2021/05/28 06:51:42;;;;;;;13.30;8.68;;;;;;;13.52;60.64;100421.03;5015769;28;20044;-69
2021/05/28 06:54:08;;;;;;;17.58;8.13;;;;;;;13.63;59.35;100418.66;5026069;28;20045;-69
2021/05/28 06:56:34;;;;;;;19.98;10.13;;;;;;;13.59;59.16;100419.78;5011214;28;20053;-68
2021/05/28 06:58:59;;;;;;;12.35;8.05;;;;;;;13.41;60.35;100423.34;5005819;28;20033;-68
2021/05/28 07:01:24;;;;;;;12.00;8.27;;;;;;;13.63;59.25;100426.59;5012378;28;20473;-69
2021/05/28 07:03:50;;;;;;;14.20;11.10;;;;;;;13.75;59.01;100425.13;5013059;28;20045;-69
2021/05/28 07:06:15;;;;;;;15.85;10.70;;;;;;;13.39;60.76;100428.75;5016745;28;20041;-67
2021/05/28 07:08:40;;;;;;;13.18;8.52;;;;;;;13.25;60.94;100436.50;5020314;28;20240;-67
2021/05/28 07:11:07;;;;;;;21.42;9.25;;;;;;;13.72;59.82;100433.25;5014415;28;20095;-68
2021/05/28 07:13:33;;;;;;;35.58;11.25;;;;;;;13.99;58.89;100438.03;5017524;28;20041;-68
2021/05/28 07:15:59;;;;;;;13.23;7.95;;;;;;;14.29;58.37;100441.69;5021692;28;20033;-69
2021/05/28 07:18:24;;;;;;;12.00;10.15;;;;;;;14.90;56.11;100444.59;5023901;28;20041;-69
2021/05/28 07:20:49;;;;;;;14.65;11.75;;;;;;;15.35;54.68;100440.22;5025833;28;20057;-68
2021/05/28 07:23:19;;;;;;;16.17;11.00;;;;;;;15.41;54.48;100443.38;5025602;28;20132;-69
2021/05/28 07:25:45;;;;;;;20.98;11.68;;;;;;;15.73;53.59;100445.09;5024617;28;20485;-69
2021/05/28 07:28:10;;;;;;;17.00;9.75;;;;;;;16.53;51.38;100446.34;5025956;28;20033;-69
2021/05/28 07:30:36;;;;;;;18.95;11.38;;;;;;;17.30;49.08;100444.91;5024144;28;20397;-69
2021/05/28 07:33:01;;;;;;;13.70;9.48;;;;;;;17.88;47.29;100442.78;5023785;28;20064;-68
2021/05/28 07:35:27;;;;;;;11.93;8.40;;;;;;;18.31;45.45;100438.91;5025183;28;20401;-69
2021/05/28 07:37:52;;;;;;;10.80;7.88;;;;;;;18.88;44.67;100444.56;5025343;28;20041;-69
2021/05/28 07:40:18;;;;;;;11.10;7.50;;;;;;;19.20;43.16;100443.16;5024936;28;20064;-69
2021/05/28 07:42:43;;;;;;;14.60;9.93;;;;;;;19.29;42.10;100439.78;5024717;28;20045;-70
2021/05/28 07:45:09;;;;;;;28.58;10.57;;;;;;;19.24;42.34;100444.63;5024121;28;20045;-69
2021/05/28 07:47:35;;;;;;;33.38;10.60;;;;;;;19.61;40.82;100445.34;5021357;28;20041;-68
2021/05/28 07:50:04;;;;;;;14.90;8.45;;;;;;;19.22;41.88;100441.22;5007493;28;20046;-69
2021/05/28 07:52:29;;;;;;;19.25;8.30;;;;;;;18.09;43.95;100443.13;5021758;28;20041;-63
2021/05/28 07:54:55;;;;;;;11.25;7.57;;;;;;;17.66;45.27;100443.38;5023467;28;20850;-64
2021/05/28 07:57:20;;;;;;;15.85;9.48;;;;;;;18.20;44.58;100440.53;5023715;28;20162;-62
2021/05/28 07:59:46;;;;;;;8.02;7.03;;;;;;;18.81;43.26;100446.00;5005128;28;20641;-65
2021/05/28 08:02:11;;;;;;;12.60;7.90;;;;;;;18.98;42.20;100438.56;5023921;28;20059;-63
2021/05/28 08:04:36;;;;;;;22.75;9.27;;;;;;;19.22;42.36;100434.06;5023537;28;20048;-63
2021/05/28 08:07:02;;;;;;;17.23;9.40;;;;;;;19.41;42.10;100436.19;5022390;28;20044;-64
2021/05/28 08:09:27;;;;;;;21.27;9.32;;;;;;;19.67;41.11;100431.56;5024724;28;20679;-64
2021/05/28 08:11:53;;;;;;;10.68;5.75;;;;;;;19.55;40.16;100431.63;5018593;28;20048;-64
2021/05/28 08:14:18;;;;;;;11.50;7.00;;;;;;;19.69;39.73;100418.03;5011598;28;20037;-62
2021/05/28 08:16:43;;;;;;;9.38;6.72;;;;;;;19.66;39.58;100431.63;5023632;28;20041;-64
2021/05/28 08:19:09;;;;;;;8.18;4.65;;;;;;;19.85;39.41;100423.06;5022944;28;20151;-66
2021/05/28 08:21:34;;;;;;;24.15;7.50;;;;;;;20.02;39.46;100427.13;5024184;28;20053;-64
2021/05/28 08:23:59;;;;;;;7.18;5.63;;;;;;;18.96;40.85;100427.13;5022630;28;20048;-63
2021/05/28 08:26:25;;;;;;;13.02;6.82;;;;;;;18.31;42.07;100426.44;5023118;28;20053;-63
2021/05/28 08:28:50;;;;;;;12.25;6.50;;;;;;;17.89;43.99;100427.63;5022247;28;20045;-64
2021/05/28 08:31:16;;;;;;;14.15;6.20;;;;;;;17.79;44.66;100433.59;5023972;28;20056;-64
2021/05/28 08:33:44;;;;;;;11.38;6.63;;;;;;;18.31;42.60;100438.91;5024439;28;20035;-64
2021/05/28 08:36:09;;;;;;;16.98;6.93;;;;;;;18.55;42.31;100436.31;5021877;28;20611;-50
2021/05/28 08:38:34;;;;;;;7.03;5.43;;;;;;;18.93;41.71;100441.56;5001857;28;20045;-51
2021/05/28 08:41:00;;;;;;;17.40;7.13;;;;;;;18.66;42.49;100436.41;5020419;28;20037;-47
2021/05/28 08:43:25;;;;;;;12.25;5.32;;;;;;;18.19;43.86;100429.97;5022956;28;20042;-49
2021/05/28 08:45:51;;;;;;;8.60;6.05;;;;;;;18.32;44.47;100421.94;5023143;28;20512;-51
2021/05/28 08:48:19;;;;;;;14.65;5.95;;;;;;;18.03;44.21;100423.03;5023734;28;20037;-51
2021/05/28 08:50:47;;;;;;;8.80;5.82;;;;;;;17.91;43.94;100425.72;5024566;28;20072;-53
2021/05/28 08:53:13;;;;;;;12.95;8.88;;;;;;;17.94;43.51;100423.69;5024043;28;20042;-70
2021/05/28 08:55:41;;;;;;;9.95;6.13;;;;;;;17.42;44.25;100411.22;5023817;28;20029;-70
2021/05/28 08:58:09;;;;;;;7.70;6.13;;;;;;;17.61;44.28;100416.16;5023696;28;20147;-69
2021/05/28 09:00:35;;;;;;;11.25;6.60;;;;;;;17.25;44.91;100414.19;5022557;28;20037;-69
2021/05/28 09:03:21;;;;;;;13.15;6.05;;;;;;;17.63;44.58;100408.91;5023354;28;20033;-69
2021/05/28 09:05:49;;;;;;;12.02;7.20;;;;;;;18.47;42.84;100412.00;5022746;28;20120;-69
2021/05/28 09:08:23;;;;;;;17.30;6.30;;;;;;;19.02;41.30;100416.81;5023369;28;20145;-69
2021/05/28 09:10:48;;;;;;;12.93;8.57;;;;;;;19.66;40.64;100408.41;5022659;28;20630;-70
2021/05/28 09:13:17;;;;;;;13.68;7.22;;;;;;;19.79;39.91;100404.81;5024489;28;20041;-70
2021/05/28 09:15:45;;;;;;;11.30;7.18;;;;;;;20.23;39.73;100408.50;5015739;28;20033;-69
2021/05/28 09:18:11;;;;;;;19.73;7.97;;;;;;;19.77;39.23;100414.81;5004146;28;20121;-70
2021/05/28 09:20:37;;;;;;;11.80;5.65;;;;;;;19.64;40.01;100407.69;5003582;28;20125;-69
2021/05/28 09:23:14;;;;;;;15.88;7.65;;;;;;;19.73;40.37;100412.34;5005887;28;20092;-68
2021/05/28 09:25:58;;;;;;;16.75;7.72;;;;;;;20.68;38.72;100405.81;5019864;28;20071;-70
2021/05/28 09:28:24;;;;;;;13.13;7.22;;;;;;;20.78;37.58;100410.28;5021763;28;20056;-69
2021/05/28 09:30:59;;;;;;;8.65;5.85;;;;;;;21.27;36.56;100407.19;5018039;28;20048;-69
2021/05/28 09:33:25;;;;;;;14.90;7.97;;;;;;;21.25;36.52;100407.31;5004044;28;20034;-69
2021/05/28 09:35:52;;;;;;;14.40;7.80;;;;;;;21.54;36.00;100396.81;5019488;28;20619;-70
2021/05/28 09:38:22;;;;;;;11.23;7.50;;;;;;;21.05;37.06;100398.25;5022598;28;20042;-70
2021/05/28 09:40:47;;;;;;;14.98;7.32;;;;;;;21.12;37.41;100409.31;5022542;28;20204;-70
2021/05/28 09:43:14;;;;;;;8.02;4.88;;;;;;;21.62;34.50;100405.06;5023659;28;20057;-69
2021/05/28 09:45:40;;;;;;;8.95;5.53;;;;;;;;;;5022641;28;20103;-71
2021/05/28 09:48:14;;;;;;;18.23;7.47;;;;;;;21.00;36.20;100395.94;5024075;28;20053;-68
2021/05/28 09:50:52;;;;;;;11.35;7.40;;;;;;;20.78;37.46;100396.03;5024229;28;20186;-70
2021/05/28 09:53:25;;;;;;;11.55;7.20;;;;;;;20.76;36.98;100395.31;5017181;28;20493;-69
2021/05/28 09:55:51;;;;;;;13.05;6.93;;;;;;;20.96;37.34;100388.28;5004108;28;20038;-69
2021/05/28 09:58:17;;;;;;;10.02;6.93;;;;;;;21.69;35.75;100378.56;5004405;28;20037;-70
2021/05/28 10:00:42;;;;;;;12.82;6.80;;;;;;;21.74;35.76;100384.38;5004615;28;20037;-70
2021/05/28 10:03:15;;;;;;;11.40;6.95;;;;;;;22.19;34.26;100384.00;5004573;28;20096;-69
2021/05/28 10:05:42;;;;;;;12.27;6.28;;;;;;;22.37;32.92;100380.69;5003529;28;20045;-70
2021/05/28 10:08:11;;;;;;;12.27;8.15;;;;;;;22.36;34.01;100379.84;5019629;28;20033;-70
2021/05/28 10:10:37;;;;;;;13.25;7.25;;;;;;;22.19;33.59;100375.09;5023441;28;20091;-70
2021/05/28 10:13:11;;;;;;;18.45;7.05;;;;;;;22.52;33.59;100368.59;5023538;28;20038;-71
2021/05/28 10:15:45;;;;;;;9.85;5.68;;;;;;;22.83;32.58;100374.72;5025653;28;20546;-70
2021/05/28 10:18:13;;;;;;;12.23;7.05;;;;;;;23.35;32.03;100385.22;5028049;28;20114;-69
2021/05/28 10:20:40;;;;;;;13.10;6.80;;;;;;;23.53;31.99;100379.97;5024646;28;20121;-69
2021/05/28 10:23:07;;;;;;;25.48;7.15;;;;;;;23.31;32.23;100379.28;5022195;28;20033;-72
2021/05/28 10:25:34;;;;;;;13.65;7.05;;;;;;;23.33;32.25;100384.50;5026568;28;20049;-70
2021/05/28 10:28:02;;;;;;;6.30;5.28;;;;;;;23.77;30.38;100377.63;5026972;28;20061;-71
2021/05/28 10:30:36;;;;;;;17.42;5.22;;;;;;;23.65;30.05;100378.78;5026303;28;20045;-69
2021/05/28 10:33:23;;;;;;;12.77;6.10;;;;;;;23.93;30.77;100370.81;5024956;28;20061;-71
2021/05/28 10:35:56;;;;;;;7.03;4.93;;;;;;;23.82;30.08;100379.06;5023099;28;20069;-71
2021/05/28 10:38:30;;;;;;;7.75;5.70;;;;;;;23.76;30.07;100367.03;5026996;28;20045;-71
2021/05/28 10:41:08;;;;;;;5.78;4.88;;;;;;;23.86;29.54;100373.22;5028035;28;20042;-71
2021/05/28 10:43:38;;;;;;;6.47;4.93;;;;;;;23.10;30.71;100370.50;5027185;28;20049;-69
2021/05/28 10:46:10;;;;;;;6.55;4.90;;;;;;;23.28;31.12;100366.13;5027980;28;20137;-69
2021/05/28 10:48:39;;;;;;;6.53;5.03;;;;;;;23.13;30.88;100367.53;5027496;28;20102;-72
2021/05/28 10:51:07;;;;;;;7.45;5.57;;;;;;;23.17;30.10;100371.63;5028868;28;20041;-71
2021/05/28 10:53:33;;;;;;;8.38;5.63;;;;;;;22.99;31.17;100363.44;5028195;28;20120;-70
2021/05/28 10:56:00;;;;;;;7.38;5.03;;;;;;;22.51;32.45;100364.19;5030856;28;20087;-72
2021/05/28 10:58:51;;;;;;;8.85;5.30;;;;;;;21.98;32.48;100359.91;5021105;28;20034;-72
2021/05/28 11:01:35;;;;;;;11.27;6.45;;;;;;;21.05;34.33;100362.56;5017001;28;20044;-71
2021/05/28 11:04:01;;;;;;;9.18;6.05;;;;;;;20.46;35.46;100358.44;5017307;28;20049;-69
2021/05/28 11:06:28;;;;;;;116.82;22.80;;;;;;;20.37;36.39;100357.34;5023329;28;20077;-71
2021/05/28 11:09:03;;;;;;;10.70;6.80;;;;;;;20.31;36.57;100355.19;5020305;28;20041;-69
2021/05/28 11:11:35;;;;;;;12.52;6.35;;;;;;;20.17;37.34;100349.09;5022998;28;20119;-74
2021/05/28 11:14:02;;;;;;;9.23;6.32;;;;;;;19.93;36.63;100348.38;5027619;28;20048;-75